TOURFACTS.DK  
Stats and Facts from Tour de France.

Tour de France 2019 starts in 321 days
  Riders   Stages   Teams   Summits   Yearly  


 
Search by year

After 2018 - Stage 21:
 15000 starters.
  5165 different riders.
  638 teams.
  2253 stages.
  456 restdays.
  442940.60 km.
  5684 abandonnees.


Top 3
GC
Geraint Thomas83:17:13
Tom Dumoulin83:19:04
Christopher Froome83:19:37
Climb
Julian Alaphilippe170 pt.
Warren Barguil91 pt.
Rafal Majka76 pt.
Sprint
Peter Sagan477 pt.
Alexander Kristoff246 pt.
Arnaud Démare203 pt.
Youth
Pierre-Roger Latou..83:39:26
Egan Bernal83:45:05
Guillaume Martin84:01:31
Facts from Tour de France 2015
  |   Stages.  |   Stage winners.  |   Days in yellow  |   Average speed.  |   Route.  |   Teams.  |   All riders.  |   Rookies.  |  

  |   Withdrawls.  |   GC.  |   Polka  |   Green  |   White  |   Summits. (In tour)  |   Miscellaneous.  |  

Stage 11 on 15 - 07 - 2015
         Owning:    Christopher Froome      Christopher Froome      Peter Sagan      Dimitri Champion  

Pick a stage:  1 2 3 4 5 6 7 8 9 10 11 12 13 14 15 16 17 18 19 20 21
  PauVallée de Saint-Savin | Dist: 188.00 km.
Cat: 3Côte de LoucrupFRAThomas Voeckler2 points 
Cat: 4Côte de Bagnères-de-BigorreSUISteve Morabito1 points 
Cat: 3Côte de MauvezinERIDaniel Teklehaimanot2 points 
Cat: 1Col d'AspinENGDaniel Martin10 points 
Cat: HCol du TourmaletPOLRafal Majka25 points 
Cat: 3Col de CauteretsPOLRafal Majka2 points 

Average speed for all riders in stage:  34,793 km./hr.
    Place:Name:Team:Time:Km/h:
1
POLRafal MajkaRUSTinkoff Saxo05:02:01  +  00:00:00=37,349 
2
ENGDaniel MartinUSATeam Cannondale - Garmin05:03:01  +  00:01:00=37,226 
3
GEREmanuel BuchmannDEUBora-Argon 1805:03:24  +  00:01:23=37,179 
44 BELSerge PauwelsZAFMTN - Qhubeka P/B Samsung05:04:09  +  00:02:08=37,087 
55 FRAThomas VoecklerFRATeam Europcar05:05:35  +  00:03:34=36,913 
66 FRAJulien SimonFRACofidis – Solutions Crédits05:05:35  +  00:03:34=36,913 
77 NEDBauke MollemaUSATrek Factory Racing05:07:12  +  00:05:11=36,719 
88 ESPAlejandro ValverdeESPMovistar Team05:07:20  +  00:05:19=36,703 
99 KENChristopher FroomeGBRSky Procycling05:07:22  +  00:05:21=36,699 
1010 ESPAlberto ContadorRUSTinkoff Saxo05:07:22  +  00:05:21=36,699 
1111 COLNairo QuintanaESPMovistar Team05:07:22  +  00:05:21=36,699 
1212 ESPSamuel SanchezUSABMC Racing Team05:07:22  +  00:05:21=36,699 
1313 USATejay Van GarderenUSABMC Racing Team05:07:22  +  00:05:21=36,699 
1414 WALGeraint ThomasGBRSky Procycling05:07:22  +  00:05:21=36,699 
1515 NEDRobert GesinkNLDTeam Lotto NL - Jumbo05:07:22  +  00:05:21=36,699 
1616 FRAPierre RollandFRATeam Europcar05:07:22  +  00:05:21=36,699 
1717 FRATony GallopinBELLotto Soudal05:07:22  +  00:05:21=36,699 
1818 SUIMathias FrankCHEIAM Cycling05:07:22  +  00:05:21=36,699 
1919 ESPJonathan CastroviejoESPMovistar Team05:07:44  +  00:05:43=36,655 
2020 USAAndrew TalanskyUSATeam Cannondale - Garmin05:07:54  +  00:05:53=36,635 
2121 FRAWarren BarguilDEUTeam Giant Alpecin05:07:54  +  00:05:53=36,635 
2222 URSTanel KangertKAZAstana Pro Team05:08:12  +  00:06:11=36,600 
2323 ITAVincenzo NibaliKAZAstana Pro Team05:08:12  +  00:06:11=36,600 
2424 SUISteve MorabitoFRAFDJ05:08:12  +  00:06:11=36,600 
2525 NEDLaurens ten DamNLDTeam Lotto NL - Jumbo05:09:14  +  00:07:13=36,477 
2626 RSAJacques Janse Van RensburgZAFMTN - Qhubeka P/B Samsung05:09:14  +  00:07:13=36,477 
2727 ESPJosé Herrada LópezESPMovistar Team05:09:51  +  00:07:50=36,405 
2828 AUSMichael RogersRUSTinkoff Saxo05:09:51  +  00:07:50=36,405 
2929 AUSRichie PorteGBRSky Procycling05:11:15  +  00:09:14=36,241 
3030 FRARomain BardetFRAAg2r La Mondiale05:15:51  +  00:13:50=35,713 
3131 ARGEduardo SepulvedaFRABretagne - Séché Environnement05:15:51  +  00:13:50=35,713 
3232 ERIMerhawi GhebremedhinZAFMTN - Qhubeka P/B Samsung05:15:51  +  00:13:50=35,713 
3333 COLWinner AnaconaESPMovistar Team05:15:51  +  00:13:50=35,713 
3434 COLJarlinson Pantano GomezCHEIAM Cycling05:15:51  +  00:13:50=35,713 
3535 NEDSteven KruijswijkNLDTeam Lotto NL - Jumbo05:17:12  +  00:15:11=35,561 
3636 NEDStef ClementCHEIAM Cycling05:17:55  +  00:15:54=35,481 
3737 FRASylvain ChavanelCHEIAM Cycling05:17:55  +  00:15:54=35,481 
3838 FRAMickaël CherelFRAAg2r La Mondiale05:17:55  +  00:15:54=35,481 
3939 ESPHaimar ZubeldiaUSATrek Factory Racing05:17:55  +  00:15:54=35,481 
4040 CZERoman KreuzigerRUSTinkoff Saxo05:17:55  +  00:15:54=35,481 
4141 POLBartosz HuzarskiDEUBora-Argon 1805:17:55  +  00:15:54=35,481 
4242 CZEJan BártaDEUBora-Argon 1805:17:55  +  00:15:54=35,481 
4343 ESPAlberto LosadaRUSTeam Katusha05:17:55  +  00:15:54=35,481 
4444 ESPJoaquim RodriguezRUSTeam Katusha05:17:55  +  00:15:54=35,481 
4545 FRAAlexis VuillermozFRAAg2r La Mondiale05:17:55  +  00:15:54=35,481 
4646 SUIJakob FuglsangKAZAstana Pro Team05:17:55  +  00:15:54=35,481 
4747 DENLars BakBELLotto Soudal05:17:55  +  00:15:54=35,481 
4848 NEDBram TankinkNLDTeam Lotto NL - Jumbo05:17:55  +  00:15:54=35,481 
4949 SUIMarcel WyssCHEIAM Cycling05:17:55  +  00:15:54=35,481 
5050 NEDWilco KeldermanNLDTeam Lotto NL - Jumbo05:17:55  +  00:15:54=35,481 
5151 PORNelson OliveiraITALampre-Merida05:17:55  +  00:15:54=35,481 
5252 COLRigoberto UránBELEtixx - Quick Step05:17:55  +  00:15:54=35,481 
5353 RSALouis MeintjesZAFMTN - Qhubeka P/B Samsung05:17:55  +  00:15:54=35,481 
5454 FRANicolas RocheGBRSky Procycling05:17:55  +  00:15:54=35,481 
5555 FRAAngelo TulikFRATeam Europcar05:18:07  +  00:16:06=35,459 
5656 ITAGiampaolo CarusoRUSTeam Katusha05:18:22  +  00:16:21=35,431 
5757 ENGAdam YatesAUSOrica - GreenEDGE05:18:34  +  00:16:33=35,409 
5858 CZELeopold KönigGBRSky Procycling05:19:48  +  00:17:47=35,272 
5959 ESPRubén PlazaITALampre-Merida05:23:45  +  00:21:44=34,842 
6060 ESPRafael Valls FerriITALampre-Merida05:23:45  +  00:21:44=34,842 
6161 ITADamiano CarusoUSABMC Racing Team05:23:45  +  00:21:44=34,842 
6262 SUIMichael SchärUSABMC Racing Team05:23:45  +  00:21:44=34,842 
6363 BELSep VanmarckeNLDTeam Lotto NL - Jumbo05:23:45  +  00:21:44=34,842 
6464 AUTGeorg PreidlerDEUTeam Giant Alpecin05:23:45  +  00:21:44=34,842 
6565 AUSNathan HaasUSATeam Cannondale - Garmin05:23:45  +  00:21:44=34,842 
6666 NEDKoen De KortDEUTeam Giant Alpecin05:23:45  +  00:21:44=34,842 
6767 PORTiago PintoRUSTeam Katusha05:23:45  +  00:21:44=34,842 
6868 CANRyder HesjedalUSATeam Cannondale - Garmin05:23:45  +  00:21:44=34,842 
6969 ESPMarkel IrizarUSATrek Factory Racing05:23:45  +  00:21:44=34,842 
7070 FRAFrédéric BrunFRABretagne - Séché Environnement05:23:45  +  00:21:44=34,842 
7171 GERPaul VossDEUBora-Argon 1805:23:45  +  00:21:44=34,842 
7272 FRAAnthony DelaplaceFRABretagne - Séché Environnement05:23:45  +  00:21:44=34,842 
7373 ESPLuis Angel MateFRACofidis – Solutions Crédits05:23:45  +  00:21:44=34,842 
7474 SUIReto HollensteinCHEIAM Cycling05:23:45  +  00:21:44=34,842 
7575 ESPDaniel NavarroFRACofidis – Solutions Crédits05:23:45  +  00:21:44=34,842 
7676 UKRAndriy GrivkoKAZAstana Pro Team05:23:45  +  00:21:44=34,842 
7777 SUIMartin ElmigerCHEIAM Cycling05:23:45  +  00:21:44=34,842 
7878 ITAMatteo BonoITALampre-Merida05:23:45  +  00:21:44=34,842 
7979 SUIDanilo WyssUSABMC Racing Team05:23:45  +  00:21:44=34,842 
8080 HRVKristijan DurasekITALampre-Merida05:23:45  +  00:21:44=34,842 
8181 BELGreg Van AvermaetUSABMC Racing Team05:23:45  +  00:21:44=34,842 
8282 FRAMatthieu LadagnousFRAFDJ05:23:45  +  00:21:44=34,842 
8383 ERIDaniel TeklehaimanotZAFMTN - Qhubeka P/B Samsung05:23:45  +  00:21:44=34,842 
8484 FRAJean-Christophe PeraudFRAAg2r La Mondiale05:23:45  +  00:21:44=34,842 
8585 FRAArnaud DémareFRAFDJ05:23:45  +  00:21:44=34,842 
8686 FRACyril GautierFRATeam Europcar05:23:45  +  00:21:44=34,842 
8787 FRAThibaut PinotFRAFDJ05:23:45  +  00:21:44=34,842 
8888 FRAJérôme CoppelCHEIAM Cycling05:23:45  +  00:21:44=34,842 
8989 FRAPerrig QuemeneurFRATeam Europcar05:23:45  +  00:21:44=34,842 
9090 FRAChristophe RiblonFRAAg2r La Mondiale05:23:45  +  00:21:44=34,842 
9191 BELJan BakelantsFRAAg2r La Mondiale05:23:45  +  00:21:44=34,842 
9292 ESPGorka Izaguirre InsaustiESPMovistar Team05:23:45  +  00:21:44=34,842 
9393 IOMPeter KennaughGBRSky Procycling05:23:45  +  00:21:44=34,842 
9494 GERSimon GeschkeDEUTeam Giant Alpecin05:23:45  +  00:21:44=34,842 
9595 NEDWout PoelsGBRSky Procycling05:23:45  +  00:21:44=34,842 
9696 BELTim WellensBELLotto Soudal05:23:45  +  00:21:44=34,842 
9797 ENGStephen CummingsZAFMTN - Qhubeka P/B Samsung05:23:45  +  00:21:44=34,842 
9898 FRARomain SicardFRATeam Europcar05:23:45  +  00:21:44=34,842 
9999 ITAMatteo TosattoRUSTinkoff Saxo05:26:41  +  00:24:40=34,529 
100100 SVKPeter SaganRUSTinkoff Saxo05:26:41  +  00:24:40=34,529 
101101 AUSRohan DennisUSABMC Racing Team05:26:41  +  00:24:40=34,529 
102102 LUXBob JungelsUSATrek Factory Racing05:26:41  +  00:24:40=34,529 
103103 BELStijn DevolderUSATrek Factory Racing05:26:41  +  00:24:40=34,529 
104104 GERPaul MartensNLDTeam Lotto NL - Jumbo05:26:41  +  00:24:40=34,529 
105105 BELJens DebusschereBELLotto Soudal05:26:41  +  00:24:40=34,529 
106106 ITADaniel OssUSABMC Racing Team05:26:41  +  00:24:40=34,529 
107107 NEDAlbert TimmerDEUTeam Giant Alpecin05:26:41  +  00:24:40=34,529 
108108 AUSMichael MatthewsAUSOrica - GreenEDGE05:28:49  +  00:26:48=34,305 
109109 FRAAlexandre GeniezFRAFDJ05:28:49  +  00:26:48=34,305 
110110 FRAPierrick FédrigoFRABretagne - Séché Environnement05:28:57  +  00:26:56=34,291 
111111 DENMichael ValgrenRUSTinkoff Saxo05:28:58  +  00:26:57=34,289 
112112 FRAArnaud GérardFRABretagne - Séché Environnement05:29:50  +  00:27:49=34,199 
113113 KAZDmitriy GruzdevKAZAstana Pro Team05:30:13  +  00:28:12=34,159 
114114 ITAMichele ScarponiKAZAstana Pro Team05:30:13  +  00:28:12=34,159 
115115 ITAFilippo PozzatoITALampre-Merida05:33:22  +  00:31:21=33,837 
116116 BELJulien VermoteBELEtixx - Quick Step05:33:22  +  00:31:21=33,837 
117117 CZEZdenek StybarBELEtixx - Quick Step05:33:22  +  00:31:21=33,837 
118118 FRAGeoffrey SoupeFRACofidis – Solutions Crédits05:33:22  +  00:31:21=33,837 
119119 ITAManuel QuinziatoUSABMC Racing Team05:33:22  +  00:31:21=33,837 
120120 AUSAdam HansenBELLotto Soudal05:33:22  +  00:31:21=33,837 
121121 NEDLieuwe WestraKAZAstana Pro Team05:33:22  +  00:31:21=33,837 
122122 PORJosé João PimentaDEUBora-Argon 1805:33:22  +  00:31:21=33,837 
123123 RSAReinardt Janse Van RensburgZAFMTN - Qhubeka P/B Samsung05:33:22  +  00:31:21=33,837 
124124 FRANicolas EdetFRACofidis – Solutions Crédits05:33:22  +  00:31:21=33,837 
125125 ESPImanol ErvitiESPMovistar Team05:33:22  +  00:31:21=33,837 
126126 FRAPierre-Luc PérichonFRABretagne - Séché Environnement05:33:22  +  00:31:21=33,837 
127127 ITAAdriano MaloriESPMovistar Team05:33:22  +  00:31:21=33,837 
128128 SUIGregory RastUSATrek Factory Racing05:33:22  +  00:31:21=33,837 
129129 BELThomas De GendtBELLotto Soudal05:33:22  +  00:31:21=33,837 
130130 NEDRoy CurversDEUTeam Giant Alpecin05:33:22  +  00:31:21=33,837 
131131 POLMichal GolasBELEtixx - Quick Step05:33:22  +  00:31:21=33,837 
132132 FRAFlorian VachonFRABretagne - Séché Environnement05:33:22  +  00:31:21=33,837 
133133 COLJosé SerpaITALampre-Merida05:33:22  +  00:31:21=33,837 
134134 NOREdvald Boasson HagenZAFMTN - Qhubeka P/B Samsung05:33:22  +  00:31:21=33,837 
135135 WALLuke RoweGBRSky Procycling05:33:22  +  00:31:21=33,837 
136136 AUTMarco HallerRUSTeam Katusha05:33:22  +  00:31:21=33,837 
137137 NEDPieter WeeningAUSOrica - GreenEDGE05:33:22  +  00:31:21=33,837 
138138 CANSvein TuftAUSOrica - GreenEDGE05:33:22  +  00:31:21=33,837 
139139 FRABrice FeilluFRABretagne - Séché Environnement05:34:35  +  00:32:34=33,714 
140140 FRAArmindo FonsecaFRABretagne - Séché Environnement05:34:35  +  00:32:34=33,714 
141141 GERJohn DegenkolbDEUTeam Giant Alpecin05:34:35  +  00:32:34=33,714 
142142 NEDRamon SinkeldamDEUTeam Giant Alpecin05:34:35  +  00:32:34=33,714 
143143 SLOKristjan KorenUSATeam Cannondale - Garmin05:34:35  +  00:32:34=33,714 
144144 NEDJos Van EmdenNLDTeam Lotto NL - Jumbo05:34:35  +  00:32:34=33,714 
145145 FRAFlorian SénéchalFRACofidis – Solutions Crédits05:34:35  +  00:32:34=33,714 
146146 POLMichal KwiatkowskiBELEtixx - Quick Step05:34:35  +  00:32:34=33,714 
147147 GERAndré GreipelBELLotto Soudal05:34:35  +  00:32:34=33,714 
148148 AUTMatthias BrändleCHEIAM Cycling05:34:35  +  00:32:34=33,714 
149149 USATyler FarrarZAFMTN - Qhubeka P/B Samsung05:34:35  +  00:32:34=33,714 
150150 GERMarcel SiebergBELLotto Soudal05:34:35  +  00:32:34=33,714 
151151 AUSLuke DurbridgeAUSOrica - GreenEDGE05:34:35  +  00:32:34=33,714 
152152 COLJulián ArredondoUSATrek Factory Racing05:34:35  +  00:32:34=33,714 
153153 FRAYohann GèneFRATeam Europcar05:34:35  +  00:32:34=33,714 
154154 ITAJacopo GuarnieriRUSTeam Katusha05:34:35  +  00:32:34=33,714 
155155 IOMMark CavendishBELEtixx - Quick Step05:34:35  +  00:32:34=33,714 
156156 BELKenneth VanbilsenFRACofidis – Solutions Crédits05:34:35  +  00:32:34=33,714 
157157 AUSMark RenshawBELEtixx - Quick Step05:34:35  +  00:32:34=33,714 
158158 BELSam BennettDEUBora-Argon 1805:34:35  +  00:32:34=33,714 
159159 FRABryan NauleauFRATeam Europcar05:34:35  +  00:32:34=33,714 
160160 FRADamien GaudinFRAAg2r La Mondiale05:34:35  +  00:32:34=33,714 
161161 FRABryan CoquardFRATeam Europcar05:34:35  +  00:32:34=33,714 
162162 FRAChristophe LaporteFRACofidis – Solutions Crédits05:34:35  +  00:32:34=33,714 
163163 LUXLaurent DidierUSATrek Factory Racing05:34:35  +  00:32:34=33,714 
164164 NEDDylan Van BaarleUSATeam Cannondale - Garmin05:34:35  +  00:32:34=33,714 
165165 NEDSebastian LangeveldUSATeam Cannondale - Garmin05:34:35  +  00:32:34=33,714 
166166 NORAlexander KristoffRUSTeam Katusha05:34:35  +  00:32:34=33,714 
167167 ENGSimon YatesAUSOrica - GreenEDGE05:34:35  +  00:32:34=33,714 
168168 ITADavide CimolaiITALampre-Merida05:34:35  +  00:32:34=33,714 
169169 FRABenoit VaugrenardFRAFDJ05:34:35  +  00:32:34=33,714 
170170 ENGIan StannardGBRSky Procycling05:34:35  +  00:32:34=33,714 
171171 FRAJérémy RoyFRAFDJ05:34:35  +  00:32:34=33,714 
172172 ITAMatteo TrentinBELEtixx - Quick Step05:34:35  +  00:32:34=33,714 
173173 URSRamunas NavardauskasUSATeam Cannondale - Garmin05:34:35  +  00:32:34=33,714 
174174 NEDTom LeezerNLDTeam Lotto NL - Jumbo05:34:35  +  00:32:34=33,714 
175175 ENGAlex DowsettESPMovistar Team05:35:56  +  00:33:55=33,578 
176176 FRASébastien ChavanelFRAFDJ05:37:16  +  00:35:15=33,445 
177177 AUSZakkari DempsterDEUBora-Argon 1805:47:48  +  00:45:47=32,432 

Withdrawls: 6
 
Rider
Team
Reason
8  URSRein TaaramäeKAZAstana Pro TeamDid not finish
15  LUXBen GastauerFRAAg2r La MondialeDid not finish
18  BELJohan VansummerenFRAAg2r La MondialeDid not finish
43  ITADaniele BennatiRUSTinkoff SaxoDid not finish
151  PORRui CostaITALampre-MeridaDid not finish
197  GERDominik NerzDEUBora-Argon 18Did not finish
Todays birthdays.

1878  Louis Gardent
1904  Ludwig Geyer
1911  Paul Egli
1916  Piet Van Nek
1926  Bruno Garonzi
1933  Roger Baens
1938  Roland Zöffel
1945  Marcello Osler
1946  Antonio Menendez
1962  Niki Rüttimann
1969  Serge Baguet
1970  Cédric Vasseur
1971  Cristian Salvato
1972  Sven Teutenberg
1988  Frédéric Brun